sensor_id;sensor_type;location;lat;lon;timestamp;temperature;humidity
46754;DHT22;32500;50.620;3.400;2022-10-31T00:00:21;18.80;80.70
46754;DHT22;32500;50.620;3.400;2022-10-31T00:02:47;18.80;80.80
46754;DHT22;32500;50.620;3.400;2022-10-31T00:05:12;18.80;80.70
46754;DHT22;32500;50.620;3.400;2022-10-31T00:07:38;18.80;80.80
46754;DHT22;32500;50.620;3.400;2022-10-31T00:10:04;18.80;80.70
46754;DHT22;32500;50.620;3.400;2022-10-31T00:12:30;18.80;80.80
46754;DHT22;32500;50.620;3.400;2022-10-31T00:14:56;18.80;80.70
46754;DHT22;32500;50.620;3.400;2022-10-31T00:17:21;18.80;80.80
46754;DHT22;32500;50.620;3.400;2022-10-31T00:19:47;18.70;80.80
46754;DHT22;32500;50.620;3.400;2022-10-31T00:22:13;18.70;80.80
46754;DHT22;32500;50.620;3.400;2022-10-31T00:24:38;18.70;80.60
46754;DHT22;32500;50.620;3.400;2022-10-31T00:27:04;18.70;80.80
46754;DHT22;32500;50.620;3.400;2022-10-31T00:29:29;18.70;80.70
46754;DHT22;32500;50.620;3.400;2022-10-31T00:31:55;18.70;80.70
46754;DHT22;32500;50.620;3.400;2022-10-31T00:34:21;18.70;80.70
46754;DHT22;32500;50.620;3.400;2022-10-31T00:36:46;18.70;80.80
46754;DHT22;32500;50.620;3.400;2022-10-31T00:39:12;18.60;80.60
46754;DHT22;32500;50.620;3.400;2022-10-31T00:41:37;18.70;80.60
46754;DHT22;32500;50.620;3.400;2022-10-31T00:44:03;18.60;80.60
46754;DHT22;32500;50.620;3.400;2022-10-31T00:46:29;18.60;80.60
46754;DHT22;32500;50.620;3.400;2022-10-31T00:48:54;18.60;80.60
46754;DHT22;32500;50.620;3.400;2022-10-31T00:51:20;18.60;80.50
46754;DHT22;32500;50.620;3.400;2022-10-31T00:53:46;18.60;80.50
46754;DHT22;32500;50.620;3.400;2022-10-31T00:56:11;18.60;80.40
46754;DHT22;32500;50.620;3.400;2022-10-31T00:58:37;18.60;80.50
46754;DHT22;32500;50.620;3.400;2022-10-31T01:01:03;18.60;80.50
46754;DHT22;32500;50.620;3.400;2022-10-31T01:03:31;18.60;80.50
46754;DHT22;32500;50.620;3.400;2022-10-31T01:06:01;18.60;80.50
46754;DHT22;32500;50.620;3.400;2022-10-31T01:08:27;18.60;80.40
46754;DHT22;32500;50.620;3.400;2022-10-31T01:11:31;18.60;80.40
46754;DHT22;32500;50.620;3.400;2022-10-31T01:13:57;18.60;80.60
46754;DHT22;32500;50.620;3.400;2022-10-31T01:16:26;18.60;80.40
46754;DHT22;32500;50.620;3.400;2022-10-31T01:18:52;18.50;80.50
46754;DHT22;32500;50.620;3.400;2022-10-31T01:21:19;18.50;80.40
46754;DHT22;32500;50.620;3.400;2022-10-31T01:23:45;18.50;80.40
46754;DHT22;32500;50.620;3.400;2022-10-31T01:26:15;18.50;80.40
46754;DHT22;32500;50.620;3.400;2022-10-31T01:29:02;18.50;80.30
46754;DHT22;32500;50.620;3.400;2022-10-31T01:31:30;18.50;80.40
46754;DHT22;32500;50.620;3.400;2022-10-31T01:33:56;18.50;80.40
46754;DHT22;32500;50.620;3.400;2022-10-31T01:36:31;18.50;80.30
46754;DHT22;32500;50.620;3.400;2022-10-31T01:39:03;18.50;80.30
46754;DHT22;32500;50.620;3.400;2022-10-31T01:41:33;18.50;80.30
46754;DHT22;32500;50.620;3.400;2022-10-31T01:44:02;18.50;80.30
46754;DHT22;32500;50.620;3.400;2022-10-31T01:46:36;18.40;80.20
46754;DHT22;32500;50.620;3.400;2022-10-31T01:49:05;18.40;80.20
46754;DHT22;32500;50.620;3.400;2022-10-31T01:51:36;18.40;80.20
46754;DHT22;32500;50.620;3.400;2022-10-31T01:54:10;18.40;80.20
46754;DHT22;32500;50.620;3.400;2022-10-31T01:56:40;18.40;80.20
46754;DHT22;32500;50.620;3.400;2022-10-31T01:59:08;18.40;80.30
46754;DHT22;32500;50.620;3.400;2022-10-31T02:01:35;18.40;80.20
46754;DHT22;32500;50.620;3.400;2022-10-31T02:04:02;18.40;80.20
46754;DHT22;32500;50.620;3.400;2022-10-31T02:06:44;18.40;80.10
46754;DHT22;32500;50.620;3.400;2022-10-31T02:09:12;18.40;80.20
46754;DHT22;32500;50.620;3.400;2022-10-31T02:11:40;18.30;80.00
46754;DHT22;32500;50.620;3.400;2022-10-31T02:14:06;18.40;80.10
46754;DHT22;32500;50.620;3.400;2022-10-31T02:16:32;18.30;80.00
46754;DHT22;32500;50.620;3.400;2022-10-31T02:18:57;18.30;80.10
46754;DHT22;32500;50.620;3.400;2022-10-31T02:37:56;18.30;80.10
46754;DHT22;32500;50.620;3.400;2022-10-31T02:40:26;18.30;80.00
46754;DHT22;32500;50.620;3.400;2022-10-31T02:45:28;18.30;80.10
46754;DHT22;32500;50.620;3.400;2022-10-31T02:47:59;18.20;80.00
46754;DHT22;32500;50.620;3.400;2022-10-31T02:50:32;18.20;80.00
46754;DHT22;32500;50.620;3.400;2022-10-31T02:53:00;18.30;80.10
46754;DHT22;32500;50.620;3.400;2022-10-31T02:57:56;18.20;80.00
46754;DHT22;32500;50.620;3.400;2022-10-31T03:00:24;18.20;79.90
46754;DHT22;32500;50.620;3.400;2022-10-31T03:03:14;18.20;80.00
46754;DHT22;32500;50.620;3.400;2022-10-31T03:11:34;18.20;79.90
46754;DHT22;32500;50.620;3.400;2022-10-31T03:14:10;18.20;80.00
46754;DHT22;32500;50.620;3.400;2022-10-31T03:16:47;18.20;79.90
46754;DHT22;32500;50.620;3.400;2022-10-31T03:19:25;18.20;80.00
46754;DHT22;32500;50.620;3.400;2022-10-31T03:22:00;18.20;79.90
46754;DHT22;32500;50.620;3.400;2022-10-31T03:24:30;18.20;79.80
46754;DHT22;32500;50.620;3.400;2022-10-31T03:26:59;18.10;79.80
46754;DHT22;32500;50.620;3.400;2022-10-31T03:29:28;18.10;79.80
46754;DHT22;32500;50.620;3.400;2022-10-31T03:31:58;18.20;79.90
46754;DHT22;32500;50.620;3.400;2022-10-31T03:34:28;18.20;79.90
46754;DHT22;32500;50.620;3.400;2022-10-31T03:36:57;18.10;79.70
46754;DHT22;32500;50.620;3.400;2022-10-31T03:39:23;18.10;79.70
46754;DHT22;32500;50.620;3.400;2022-10-31T03:41:58;18.10;79.70
46754;DHT22;32500;50.620;3.400;2022-10-31T03:44:26;18.10;79.80
46754;DHT22;32500;50.620;3.400;2022-10-31T03:46:53;18.10;79.80
46754;DHT22;32500;50.620;3.400;2022-10-31T03:49:19;18.10;79.70
46754;DHT22;32500;50.620;3.400;2022-10-31T03:57:21;18.10;79.70
46754;DHT22;32500;50.620;3.400;2022-10-31T03:59:56;18.10;79.70
46754;DHT22;32500;50.620;3.400;2022-10-31T04:02:27;18.10;79.70
46754;DHT22;32500;50.620;3.400;2022-10-31T04:04:54;18.00;79.60
46754;DHT22;32500;50.620;3.400;2022-10-31T04:07:21;18.00;79.60
46754;DHT22;32500;50.620;3.400;2022-10-31T04:09:50;18.10;79.70
46754;DHT22;32500;50.620;3.400;2022-10-31T04:12:17;18.10;79.70
46754;DHT22;32500;50.620;3.400;2022-10-31T04:14:45;18.00;79.60
46754;DHT22;32500;50.620;3.400;2022-10-31T04:17:14;18.00;79.70
46754;DHT22;32500;50.620;3.400;2022-10-31T04:19:41;18.00;79.60
46754;DHT22;32500;50.620;3.400;2022-10-31T04:22:07;18.00;79.60
46754;DHT22;32500;50.620;3.400;2022-10-31T04:24:32;18.00;79.60
46754;DHT22;32500;50.620;3.400;2022-10-31T04:26:58;18.00;79.60
46754;DHT22;32500;50.620;3.400;2022-10-31T04:29:24;18.00;79.50
46754;DHT22;32500;50.620;3.400;2022-10-31T04:31:49;18.00;79.60
46754;DHT22;32500;50.620;3.400;2022-10-31T04:34:15;18.00;79.40
46754;DHT22;32500;50.620;3.400;2022-10-31T04:36:40;18.00;79.50
46754;DHT22;32500;50.620;3.400;2022-10-31T04:39:06;18.00;79.60
46754;DHT22;32500;50.620;3.400;2022-10-31T04:41:32;18.00;79.50
46754;DHT22;32500;50.620;3.400;2022-10-31T04:43:57;18.00;79.50
46754;DHT22;32500;50.620;3.400;2022-10-31T04:46:23;18.00;79.50
46754;DHT22;32500;50.620;3.400;2022-10-31T04:48:49;18.00;79.50
46754;DHT22;32500;50.620;3.400;2022-10-31T04:51:14;18.00;79.50
46754;DHT22;32500;50.620;3.400;2022-10-31T04:53:40;18.00;79.50
46754;DHT22;32500;50.620;3.400;2022-10-31T04:56:06;18.00;79.40
46754;DHT22;32500;50.620;3.400;2022-10-31T04:58:32;18.00;79.40
46754;DHT22;32500;50.620;3.400;2022-10-31T05:00:57;18.00;79.40
46754;DHT22;32500;50.620;3.400;2022-10-31T05:03:23;18.00;80.10
46754;DHT22;32500;50.620;3.400;2022-10-31T05:05:49;18.00;79.50
46754;DHT22;32500;50.620;3.400;2022-10-31T05:08:15;17.90;79.40
46754;DHT22;32500;50.620;3.400;2022-10-31T05:10:40;17.90;79.40
46754;DHT22;32500;50.620;3.400;2022-10-31T05:13:06;18.00;79.40
46754;DHT22;32500;50.620;3.400;2022-10-31T05:15:32;18.00;79.40
46754;DHT22;32500;50.620;3.400;2022-10-31T05:17:58;17.90;79.30
46754;DHT22;32500;50.620;3.400;2022-10-31T05:20:26;17.90;79.20
46754;DHT22;32500;50.620;3.400;2022-10-31T05:22:54;18.00;79.30
46754;DHT22;32500;50.620;3.400;2022-10-31T05:25:22;17.90;79.20
46754;DHT22;32500;50.620;3.400;2022-10-31T05:27:49;17.90;79.20
46754;DHT22;32500;50.620;3.400;2022-10-31T05:30:18;18.00;79.20
46754;DHT22;32500;50.620;3.400;2022-10-31T05:32:46;18.00;79.00
46754;DHT22;32500;50.620;3.400;2022-10-31T05:35:14;18.00;78.90
46754;DHT22;32500;50.620;3.400;2022-10-31T05:37:40;18.10;78.70
46754;DHT22;32500;50.620;3.400;2022-10-31T05:40:08;18.10;78.70
46754;DHT22;32500;50.620;3.400;2022-10-31T05:42:38;18.00;78.70
46754;DHT22;32500;50.620;3.400;2022-10-31T05:45:09;18.00;78.70
46754;DHT22;32500;50.620;3.400;2022-10-31T05:47:35;18.00;78.90
46754;DHT22;32500;50.620;3.400;2022-10-31T05:50:00;18.00;79.00
46754;DHT22;32500;50.620;3.400;2022-10-31T05:52:26;18.00;79.00
46754;DHT22;32500;50.620;3.400;2022-10-31T05:54:52;18.00;78.90
46754;DHT22;32500;50.620;3.400;2022-10-31T05:57:17;18.00;78.90
46754;DHT22;32500;50.620;3.400;2022-10-31T05:59:43;18.00;78.90
46754;DHT22;32500;50.620;3.400;2022-10-31T06:02:09;18.00;78.80
46754;DHT22;32500;50.620;3.400;2022-10-31T06:04:34;18.00;78.90
46754;DHT22;32500;50.620;3.400;2022-10-31T06:07:00;18.00;78.70
46754;DHT22;32500;50.620;3.400;2022-10-31T06:09:25;18.00;78.70
46754;DHT22;32500;50.620;3.400;2022-10-31T06:11:51;18.00;78.50
46754;DHT22;32500;50.620;3.400;2022-10-31T06:14:17;18.00;78.40
46754;DHT22;32500;50.620;3.400;2022-10-31T06:16:42;18.00;78.60
46754;DHT22;32500;50.620;3.400;2022-10-31T06:19:08;18.00;79.40
46754;DHT22;32500;50.620;3.400;2022-10-31T06:21:34;18.00;78.40
46754;DHT22;32500;50.620;3.400;2022-10-31T06:23:59;18.00;78.60
46754;DHT22;32500;50.620;3.400;2022-10-31T06:26:25;18.00;78.80
46754;DHT22;32500;50.620;3.400;2022-10-31T06:28:50;18.00;79.10
46754;DHT22;32500;50.620;3.400;2022-10-31T06:31:16;18.10;78.90
46754;DHT22;32500;50.620;3.400;2022-10-31T06:33:42;18.10;78.70
46754;DHT22;32500;50.620;3.400;2022-10-31T06:36:08;18.10;78.70
46754;DHT22;32500;50.620;3.400;2022-10-31T06:38:34;18.00;78.60
46754;DHT22;32500;50.620;3.400;2022-10-31T06:41:04;18.00;79.00
46754;DHT22;32500;50.620;3.400;2022-10-31T06:43:30;18.10;78.90
46754;DHT22;32500;50.620;3.400;2022-10-31T06:45:56;18.10;79.00
46754;DHT22;32500;50.620;3.400;2022-10-31T06:48:21;18.10;78.70
46754;DHT22;32500;50.620;3.400;2022-10-31T06:50:47;18.10;78.70
46754;DHT22;32500;50.620;3.400;2022-10-31T06:53:13;18.10;78.70
46754;DHT22;32500;50.620;3.400;2022-10-31T06:55:40;18.10;78.60
46754;DHT22;32500;50.620;3.400;2022-10-31T06:58:06;18.00;78.70
46754;DHT22;32500;50.620;3.400;2022-10-31T07:00:32;18.10;78.80
46754;DHT22;32500;50.620;3.400;2022-10-31T07:03:01;18.00;78.70
46754;DHT22;32500;50.620;3.400;2022-10-31T07:05:28;18.10;78.80
46754;DHT22;32500;50.620;3.400;2022-10-31T07:07:55;18.00;78.60
46754;DHT22;32500;50.620;3.400;2022-10-31T07:10:22;18.00;78.60
46754;DHT22;32500;50.620;3.400;2022-10-31T07:12:48;18.00;78.70
46754;DHT22;32500;50.620;3.400;2022-10-31T07:15:13;18.00;78.70
46754;DHT22;32500;50.620;3.400;2022-10-31T07:17:39;18.10;78.70
46754;DHT22;32500;50.620;3.400;2022-10-31T07:20:05;18.00;78.50
46754;DHT22;32500;50.620;3.400;2022-10-31T07:22:35;18.00;78.60
46754;DHT22;32500;50.620;3.400;2022-10-31T07:25:01;18.00;78.60
46754;DHT22;32500;50.620;3.400;2022-10-31T07:27:27;18.00;78.60
46754;DHT22;32500;50.620;3.400;2022-10-31T07:29:52;18.00;78.70
46754;DHT22;32500;50.620;3.400;2022-10-31T07:32:18;18.00;78.60
46754;DHT22;32500;50.620;3.400;2022-10-31T07:34:43;18.00;78.60
46754;DHT22;32500;50.620;3.400;2022-10-31T07:37:09;18.00;78.40
46754;DHT22;32500;50.620;3.400;2022-10-31T07:39:35;18.00;78.40
46754;DHT22;32500;50.620;3.400;2022-10-31T07:42:00;18.00;78.50
46754;DHT22;32500;50.620;3.400;2022-10-31T07:44:26;18.00;78.50
46754;DHT22;32500;50.620;3.400;2022-10-31T07:46:52;18.00;78.40
46754;DHT22;32500;50.620;3.400;2022-10-31T07:49:17;18.00;78.40
46754;DHT22;32500;50.620;3.400;2022-10-31T07:51:43;18.10;78.40
46754;DHT22;32500;50.620;3.400;2022-10-31T07:54:08;18.10;78.40
46754;DHT22;32500;50.620;3.400;2022-10-31T07:56:34;18.10;78.30
46754;DHT22;32500;50.620;3.400;2022-10-31T07:58:59;18.10;78.20
46754;DHT22;32500;50.620;3.400;2022-10-31T08:01:25;18.10;78.20
46754;DHT22;32500;50.620;3.400;2022-10-31T08:03:51;18.00;78.10
46754;DHT22;32500;50.620;3.400;2022-10-31T08:06:16;18.10;78.10
46754;DHT22;32500;50.620;3.400;2022-10-31T08:08:42;18.00;78.10
46754;DHT22;32500;50.620;3.400;2022-10-31T08:11:08;18.00;78.10
46754;DHT22;32500;50.620;3.400;2022-10-31T08:13:34;18.00;78.10
46754;DHT22;32500;50.620;3.400;2022-10-31T08:16:00;18.00;78.10
46754;DHT22;32500;50.620;3.400;2022-10-31T08:18:29;18.00;78.10
46754;DHT22;32500;50.620;3.400;2022-10-31T08:20:55;18.10;78.20
46754;DHT22;32500;50.620;3.400;2022-10-31T08:23:21;18.10;78.10
46754;DHT22;32500;50.620;3.400;2022-10-31T08:25:46;18.10;78.10
46754;DHT22;32500;50.620;3.400;2022-10-31T08:28:15;18.10;78.80
46754;DHT22;32500;50.620;3.400;2022-10-31T08:30:41;18.10;78.10
46754;DHT22;32500;50.620;3.400;2022-10-31T08:33:12;18.10;78.10
46754;DHT22;32500;50.620;3.400;2022-10-31T08:35:39;18.10;78.90
46754;DHT22;32500;50.620;3.400;2022-10-31T08:38:05;18.10;78.50
46754;DHT22;32500;50.620;3.400;2022-10-31T08:40:33;18.20;78.80
46754;DHT22;32500;50.620;3.400;2022-10-31T08:43:02;18.20;78.80
46754;DHT22;32500;50.620;3.400;2022-10-31T08:45:29;18.30;79.20
46754;DHT22;32500;50.620;3.400;2022-10-31T08:48:03;18.30;79.10
46754;DHT22;32500;50.620;3.400;2022-10-31T08:50:31;18.30;79.00
46754;DHT22;32500;50.620;3.400;2022-10-31T08:53:04;18.40;79.00
46754;DHT22;32500;50.620;3.400;2022-10-31T08:55:32;18.40;79.10
46754;DHT22;32500;50.620;3.400;2022-10-31T08:57:57;18.40;79.00
46754;DHT22;32500;50.620;3.400;2022-10-31T09:00:24;18.40;79.00
46754;DHT22;32500;50.620;3.400;2022-10-31T09:02:57;18.40;78.90
46754;DHT22;32500;50.620;3.400;2022-10-31T09:05:23;18.40;78.60
46754;DHT22;32500;50.620;3.400;2022-10-31T09:07:49;18.40;78.60
46754;DHT22;32500;50.620;3.400;2022-10-31T09:10:15;18.40;78.70
46754;DHT22;32500;50.620;3.400;2022-10-31T09:12:41;18.40;78.70
46754;DHT22;32500;50.620;3.400;2022-10-31T09:15:07;18.40;78.80
46754;DHT22;32500;50.620;3.400;2022-10-31T09:17:33;18.50;78.40
46754;DHT22;32500;50.620;3.400;2022-10-31T09:19:59;18.40;78.40
46754;DHT22;32500;50.620;3.400;2022-10-31T09:22:24;18.40;78.30
46754;DHT22;32500;50.620;3.400;2022-10-31T09:24:50;18.50;78.20
46754;DHT22;32500;50.620;3.400;2022-10-31T09:27:15;18.50;78.30
46754;DHT22;32500;50.620;3.400;2022-10-31T09:29:41;18.50;78.10
46754;DHT22;32500;50.620;3.400;2022-10-31T09:32:07;18.50;78.20
46754;DHT22;32500;50.620;3.400;2022-10-31T09:34:32;18.50;77.90
46754;DHT22;32500;50.620;3.400;2022-10-31T09:36:58;18.60;78.20
46754;DHT22;32500;50.620;3.400;2022-10-31T09:39:24;18.60;77.70
46754;DHT22;32500;50.620;3.400;2022-10-31T09:50:20;18.60;78.00
46754;DHT22;32500;50.620;3.400;2022-10-31T09:53:23;18.60;78.10
46754;DHT22;32500;50.620;3.400;2022-10-31T09:55:50;18.60;78.40
46754;DHT22;32500;50.620;3.400;2022-10-31T09:58:29;18.60;78.60
46754;DHT22;32500;50.620;3.400;2022-10-31T10:00:59;18.60;78.80
46754;DHT22;32500;50.620;3.400;2022-10-31T10:08:41;18.70;79.20
46754;DHT22;32500;50.620;3.400;2022-10-31T10:16:52;18.80;79.60
46754;DHT22;32500;50.620;3.400;2022-10-31T10:30:32;18.90;79.90
46754;DHT22;32500;50.620;3.400;2022-10-31T10:33:03;18.90;79.90
46754;DHT22;32500;50.620;3.400;2022-10-31T10:35:38;18.90;79.70
46754;DHT22;32500;50.620;3.400;2022-10-31T10:38:24;19.00;79.80
46754;DHT22;32500;50.620;3.400;2022-10-31T10:40:53;19.00;79.80
46754;DHT22;32500;50.620;3.400;2022-10-31T10:59:32;19.00;79.80
46754;DHT22;32500;50.620;3.400;2022-10-31T11:01:59;19.00;80.00
46754;DHT22;32500;50.620;3.400;2022-10-31T11:04:35;19.00;80.10
46754;DHT22;32500;50.620;3.400;2022-10-31T11:07:07;19.10;80.10
46754;DHT22;32500;50.620;3.400;2022-10-31T11:09:33;19.10;80.20
46754;DHT22;32500;50.620;3.400;2022-10-31T11:12:00;19.10;80.40
46754;DHT22;32500;50.620;3.400;2022-10-31T11:14:42;19.20;81.40
46754;DHT22;32500;50.620;3.400;2022-10-31T11:17:26;19.20;81.10
46754;DHT22;32500;50.620;3.400;2022-10-31T11:22:27;19.20;80.70
46754;DHT22;32500;50.620;3.400;2022-10-31T11:24:52;19.20;80.70
46754;DHT22;32500;50.620;3.400;2022-10-31T11:27:23;19.10;80.40
46754;DHT22;32500;50.620;3.400;2022-10-31T11:29:50;19.10;80.20
46754;DHT22;32500;50.620;3.400;2022-10-31T11:32:22;19.10;80.10
46754;DHT22;32500;50.620;3.400;2022-10-31T11:34:51;19.10;80.00
46754;DHT22;32500;50.620;3.400;2022-10-31T11:37:29;19.10;79.90
46754;DHT22;32500;50.620;3.400;2022-10-31T11:39:58;19.10;79.70
46754;DHT22;32500;50.620;3.400;2022-10-31T11:42:39;19.10;79.70
46754;DHT22;32500;50.620;3.400;2022-10-31T11:45:15;19.20;79.70
46754;DHT22;32500;50.620;3.400;2022-10-31T11:47:44;19.10;80.10
46754;DHT22;32500;50.620;3.400;2022-10-31T11:50:11;19.20;80.20
46754;DHT22;32500;50.620;3.400;2022-10-31T11:52:43;19.20;80.10
46754;DHT22;32500;50.620;3.400;2022-10-31T11:57:49;19.20;80.40
46754;DHT22;32500;50.620;3.400;2022-10-31T12:00:30;19.30;80.30
46754;DHT22;32500;50.620;3.400;2022-10-31T12:08:41;19.30;80.30
46754;DHT22;32500;50.620;3.400;2022-10-31T12:14:16;19.30;80.30
46754;DHT22;32500;50.620;3.400;2022-10-31T12:22:19;19.20;80.10
46754;DHT22;32500;50.620;3.400;2022-10-31T12:25:07;19.20;80.00
46754;DHT22;32500;50.620;3.400;2022-10-31T12:30:26;19.30;79.90
46754;DHT22;32500;50.620;3.400;2022-10-31T12:57:30;19.30;79.60
46754;DHT22;32500;50.620;3.400;2022-10-31T13:00:02;19.30;79.60
46754;DHT22;32500;50.620;3.400;2022-10-31T13:05:32;19.30;79.50
46754;DHT22;32500;50.620;3.400;2022-10-31T13:08:17;19.30;79.50
46754;DHT22;32500;50.620;3.400;2022-10-31T13:13:38;19.30;79.30
46754;DHT22;32500;50.620;3.400;2022-10-31T13:16:20;19.30;79.20
46754;DHT22;32500;50.620;3.400;2022-10-31T13:21:30;19.40;79.10
46754;DHT22;32500;50.620;3.400;2022-10-31T13:23:59;19.40;79.00
46754;DHT22;32500;50.620;3.400;2022-10-31T13:26:40;19.40;79.10
46754;DHT22;32500;50.620;3.400;2022-10-31T13:29:21;19.40;79.10
46754;DHT22;32500;50.620;3.400;2022-10-31T13:31:48;19.40;79.20
46754;DHT22;32500;50.620;3.400;2022-10-31T13:34:33;19.40;79.20
46754;DHT22;32500;50.620;3.400;2022-10-31T13:40:05;19.40;79.10
46754;DHT22;32500;50.620;3.400;2022-10-31T13:45:19;19.40;79.30
46754;DHT22;32500;50.620;3.400;2022-10-31T13:50:41;19.40;79.20
46754;DHT22;32500;50.620;3.400;2022-10-31T13:53:20;19.30;79.10
46754;DHT22;32500;50.620;3.400;2022-10-31T13:56:13;19.40;79.20
46754;DHT22;32500;50.620;3.400;2022-10-31T13:58:35;19.40;79.20
46754;DHT22;32500;50.620;3.400;2022-10-31T14:01:22;19.40;79.10
46754;DHT22;32500;50.620;3.400;2022-10-31T14:06:37;19.40;79.00
46754;DHT22;32500;50.620;3.400;2022-10-31T14:09:03;19.40;79.00
46754;DHT22;32500;50.620;3.400;2022-10-31T14:11:29;19.40;78.90
46754;DHT22;32500;50.620;3.400;2022-10-31T14:13:57;19.40;78.90
46754;DHT22;32500;50.620;3.400;2022-10-31T14:16:28;19.40;79.00
46754;DHT22;32500;50.620;3.400;2022-10-31T14:19:04;19.40;79.10
46754;DHT22;32500;50.620;3.400;2022-10-31T14:21:40;19.40;79.10
46754;DHT22;32500;50.620;3.400;2022-10-31T14:27:02;19.40;79.10
46754;DHT22;32500;50.620;3.400;2022-10-31T14:29:32;19.40;79.20
46754;DHT22;32500;50.620;3.400;2022-10-31T14:34:42;19.40;79.30
46754;DHT22;32500;50.620;3.400;2022-10-31T14:37:27;19.40;79.30
46754;DHT22;32500;50.620;3.400;2022-10-31T14:45:59;19.40;79.40
46754;DHT22;32500;50.620;3.400;2022-10-31T14:51:20;19.30;79.40
46754;DHT22;32500;50.620;3.400;2022-10-31T14:53:52;19.40;80.40
46754;DHT22;32500;50.620;3.400;2022-10-31T14:56:29;19.40;79.50
46754;DHT22;32500;50.620;3.400;2022-10-31T14:58:58;19.40;79.50
46754;DHT22;32500;50.620;3.400;2022-10-31T15:01:28;19.30;79.50
46754;DHT22;32500;50.620;3.400;2022-10-31T15:04:30;19.40;79.60
46754;DHT22;32500;50.620;3.400;2022-10-31T15:07:10;19.40;79.90
46754;DHT22;32500;50.620;3.400;2022-10-31T15:09:36;19.40;79.60
46754;DHT22;32500;50.620;3.400;2022-10-31T15:12:26;19.40;79.50
46754;DHT22;32500;50.620;3.400;2022-10-31T15:14:52;19.40;79.60
46754;DHT22;32500;50.620;3.400;2022-10-31T15:17:19;19.40;79.60
46754;DHT22;32500;50.620;3.400;2022-10-31T15:19:45;19.30;79.60
46754;DHT22;32500;50.620;3.400;2022-10-31T15:22:15;19.40;79.90
46754;DHT22;32500;50.620;3.400;2022-10-31T15:24:42;19.40;79.80
46754;DHT22;32500;50.620;3.400;2022-10-31T15:27:17;19.40;80.20
46754;DHT22;32500;50.620;3.400;2022-10-31T15:29:52;19.40;80.50
46754;DHT22;32500;50.620;3.400;2022-10-31T15:32:23;19.50;80.80
46754;DHT22;32500;50.620;3.400;2022-10-31T15:34:51;19.40;80.80
46754;DHT22;32500;50.620;3.400;2022-10-31T15:37:19;19.50;80.90
46754;DHT22;32500;50.620;3.400;2022-10-31T15:39:47;19.60;80.90
46754;DHT22;32500;50.620;3.400;2022-10-31T15:42:28;19.60;80.80
46754;DHT22;32500;50.620;3.400;2022-10-31T15:47:35;19.70;80.70
46754;DHT22;32500;50.620;3.400;2022-10-31T15:50:02;19.70;81.00
46754;DHT22;32500;50.620;3.400;2022-10-31T15:52:39;19.70;81.70
46754;DHT22;32500;50.620;3.400;2022-10-31T15:55:16;19.60;82.50
46754;DHT22;32500;50.620;3.400;2022-10-31T15:57:46;19.60;82.40
46754;DHT22;32500;50.620;3.400;2022-10-31T16:00:26;19.70;82.40
46754;DHT22;32500;50.620;3.400;2022-10-31T16:05:45;19.70;83.00
46754;DHT22;32500;50.620;3.400;2022-10-31T16:13:34;19.70;83.60
46754;DHT22;32500;50.620;3.400;2022-10-31T16:16:03;19.60;83.20
46754;DHT22;32500;50.620;3.400;2022-10-31T16:18:34;19.70;84.40
46754;DHT22;32500;50.620;3.400;2022-10-31T16:21:01;19.70;83.50
46754;DHT22;32500;50.620;3.400;2022-10-31T16:23:27;19.80;83.40
46754;DHT22;32500;50.620;3.400;2022-10-31T16:25:53;19.80;83.10
46754;DHT22;32500;50.620;3.400;2022-10-31T16:28:22;19.80;83.40
46754;DHT22;32500;50.620;3.400;2022-10-31T16:30:56;19.70;83.90
46754;DHT22;32500;50.620;3.400;2022-10-31T16:38:54;19.60;83.70
46754;DHT22;32500;50.620;3.400;2022-10-31T16:41:20;19.60;83.60
46754;DHT22;32500;50.620;3.400;2022-10-31T16:43:45;19.50;83.70
46754;DHT22;32500;50.620;3.400;2022-10-31T16:46:18;19.50;83.70
46754;DHT22;32500;50.620;3.400;2022-10-31T16:48:45;19.50;83.80
46754;DHT22;32500;50.620;3.400;2022-10-31T16:51:10;19.50;83.80
46754;DHT22;32500;50.620;3.400;2022-10-31T16:53:36;19.50;84.00
46754;DHT22;32500;50.620;3.400;2022-10-31T16:56:03;19.50;84.20
46754;DHT22;32500;50.620;3.400;2022-10-31T16:58:31;19.40;84.10
46754;DHT22;32500;50.620;3.400;2022-10-31T17:00:59;19.50;84.10
46754;DHT22;32500;50.620;3.400;2022-10-31T17:03:25;19.50;84.30
46754;DHT22;32500;50.620;3.400;2022-10-31T17:05:51;19.50;84.10
46754;DHT22;32500;50.620;3.400;2022-10-31T17:08:17;19.50;84.10
46754;DHT22;32500;50.620;3.400;2022-10-31T17:10:44;19.40;84.20
46754;DHT22;32500;50.620;3.400;2022-10-31T17:13:18;19.40;84.30
46754;DHT22;32500;50.620;3.400;2022-10-31T17:15:48;19.40;83.90
46754;DHT22;32500;50.620;3.400;2022-10-31T17:18:16;19.40;83.40
46754;DHT22;32500;50.620;3.400;2022-10-31T17:20:45;19.30;85.00
46754;DHT22;32500;50.620;3.400;2022-10-31T17:23:13;19.30;85.60
46754;DHT22;32500;50.620;3.400;2022-10-31T17:25:39;19.30;84.60
46754;DHT22;32500;50.620;3.400;2022-10-31T17:28:05;19.40;86.20
46754;DHT22;32500;50.620;3.400;2022-10-31T17:30:32;19.40;85.40
46754;DHT22;32500;50.620;3.400;2022-10-31T17:33:00;19.40;85.70
46754;DHT22;32500;50.620;3.400;2022-10-31T17:35:25;19.30;85.90
46754;DHT22;32500;50.620;3.400;2022-10-31T17:37:51;19.30;85.00
46754;DHT22;32500;50.620;3.400;2022-10-31T17:40:19;19.30;84.90
46754;DHT22;32500;50.620;3.400;2022-10-31T17:42:53;19.30;84.80
46754;DHT22;32500;50.620;3.400;2022-10-31T17:45:20;19.30;84.30
46754;DHT22;32500;50.620;3.400;2022-10-31T17:47:47;19.20;84.20
46754;DHT22;32500;50.620;3.400;2022-10-31T17:50:15;19.40;84.60
46754;DHT22;32500;50.620;3.400;2022-10-31T17:52:40;19.40;84.30
46754;DHT22;32500;50.620;3.400;2022-10-31T17:55:06;19.40;84.10
46754;DHT22;32500;50.620;3.400;2022-10-31T17:57:33;19.30;83.50
46754;DHT22;32500;50.620;3.400;2022-10-31T17:59:59;19.30;83.30
46754;DHT22;32500;50.620;3.400;2022-10-31T18:02:25;19.30;83.00
46754;DHT22;32500;50.620;3.400;2022-10-31T18:04:51;19.20;82.70
46754;DHT22;32500;50.620;3.400;2022-10-31T18:07:17;19.20;82.60
46754;DHT22;32500;50.620;3.400;2022-10-31T18:09:45;19.20;82.10
46754;DHT22;32500;50.620;3.400;2022-10-31T18:12:12;19.30;82.60
46754;DHT22;32500;50.620;3.400;2022-10-31T18:14:37;19.40;82.80
46754;DHT22;32500;50.620;3.400;2022-10-31T18:17:03;19.40;82.40
46754;DHT22;32500;50.620;3.400;2022-10-31T18:19:29;19.40;82.40
46754;DHT22;32500;50.620;3.400;2022-10-31T18:21:54;19.40;82.80
46754;DHT22;32500;50.620;3.400;2022-10-31T18:24:20;19.30;82.60
46754;DHT22;32500;50.620;3.400;2022-10-31T18:26:46;19.30;82.10
46754;DHT22;32500;50.620;3.400;2022-10-31T18:29:13;19.20;82.10
46754;DHT22;32500;50.620;3.400;2022-10-31T18:31:39;19.20;82.00
46754;DHT22;32500;50.620;3.400;2022-10-31T18:34:04;19.30;82.50
46754;DHT22;32500;50.620;3.400;2022-10-31T18:36:30;19.30;82.10